Strona główna
METAR-TAF:

METAR-TAF

Lotnisko :

Port lotniczy Bruksela

Bruksela, Belgia

Szerokość geograficzna: 50-54N, Długość geograficzna: 004-32E, wysokość: 55 m

Aktualna obserwacja pogody

Raport powstał 43 minut temu, godzina 02:50 UTC
Wiatr 3 kt od zachodnio-północny zachód
Temperatura 15°C
Wilgotność 94%
Ciśnienie 1016 hPa
Widzialność 10 km lub więcej
Brak chmur poniżej 1500 m i brak chmur cumulonimbus

METAR: EBBR 180250Z 30003KT CAVOK 15/14 Q1016 NOSIG

czas: 05:33 (03:33 UTC)

Prognoza

Raport powstał 4 godziny i 23 minut temu, godzina 23:10 UTC
Prognoza ważna od 18 godzina 00 UTC do 19 godzina 06 UTC
Wiatr 2 kt z kierunków zmiennych
Widzialność 10 km lub więcej
Brak chmur poniżej 1500 m i brak chmur cumulonimbus
Prawdopodobieństwo 40% :
Przejściowo
od 19 godzina 04 UTC do 19 godzina 06 UTC
Widzialność: 4500 m
przelotny opad deszczu, deszcz

TAF: EBBR 172310Z 1800/1906 VRB02KT CAVOK PROB40 TEMPO 1904/1906 4500 SHRA RA

Obserwacja i prognoza pogody dla ponad 4000 lotnisk (raport METAR i TAF).

Dostępne stacje oznaczono żółtymi i czerwonymi punktami na mapie.

Najedź kursorem aby zobaczyć nazwę stacji.

Kliknij aby zobaczyć obserwacje i prognozy pogody.

Aby zmienić mapę: kliknij na zielony przycisk z czarnym krzyżykiem, aby powiększyć; na zielony przycisk z myślnikiem, aby pomniejszyć; na zielone strzałki, aby przejść do map sąsiednich.


METAR-TAF: